ADDS TAF Data INFO
IDs: Format: Raw Decoded Include METARs

Data at: 1220 UTC 20 May 2018

KAMA 201153Z 01018G25KT 10SM CLR 09/07 A3014 RMK AO2 PK WND 01027/1138 SLP169 70008 T00940067 10133 20094 50003

KAMA 201120Z 2012/2112 02015KT P6SM SCT025 BKN050
  FM201400 02014KT P6SM SKC
  FM210000 14007KT P6SM SKC
  FM210900 16007KT P6SM SCT035 BKN050